Powranna, Tasmania

12:47 PM AEDT on February 14, 2016 (GMT +1100)
Launceston | | Change Station
CLOSE
Current Station
Airport
Location: Launceston Airport,
Elevation: 561 ft
Nearby Weather Stations

Elev 561 ft 41.55 °S, 147.21 °E | Updated 17 minutes ago

Mostly Cloudy
Mostly Cloudy
68 °F
Feels Like 68 °F
N
20
Wind Variable Wind from WNW

Today
High -- | Low -- °F
--% Chance of Precip.
Yesterday
High -- | Low -- °F
Precip. -- in
Pressure 29.62 in
Visibility 6.2 miles
Clouds Mostly Cloudy 6100 ft
Mostly Cloudy 7000 ft
Dew Point 37 °F
Humidity 33%
Rainfall 0.00 in
Snow Depth Not available.
6:31 AM 8:17 PM
Waxing Crescent, 36% visible
METAR YMLT 140130Z AUTO 29017KT 9999 // BKN061 BKN070 20/03 Q1003
Pressure 29.62 in
Visibility 6.2 miles
Clouds Mostly Cloudy 6100 ft
Mostly Cloudy 7000 ft
Dew Point 37 °F
Humidity 33%
Rainfall 0.00 in
Snow Depth Not available.
6:31 AM 8:17 PM
Waxing Crescent, 36% visible
METAR YMLT 140130Z AUTO 29017KT 9999 // BKN061 BKN070 20/03 Q1003

10-Day Weather Forecast

No radar image for this location.
×

Almanac

Astronomy

Feb. 14, 2016 Rise Set
Actual Time
Civil Twilight
Nautical Twilight
Astronomical Twilight
Moon
Length of Visible Light
Length of Day
Tomorrow will be .
, % of the Moon is Illuminated

Today's Extremes

Country Highs Country Lows

Community

WunderPhotos

Upload Photos

1,892,722 photos uploaded!

WunderBlog® & News

Nearby

Air Quality

  Air Quality AQ Index Pollutant
Not available.

Snow Depth

Station Depth Elevation

Earthquake Activity

City Distance Mag. Time & Date
Minimum magnitude displayed is 2.5.

Coastal Water Temperatures

Place Temperature

Stations

Nearby Weather Stations

Station Location Temp. Windchill Dew Point Humidity Wind Precip. Elev Updated Type